sensor_id;sensor_type;location;lat;lon;timestamp;temperature;humidity
20504;DHT22;10410;51.046;6.980;2022-12-22T00:05:35;9.10;99.90
20504;DHT22;10410;51.046;6.980;2022-12-22T00:12:54;9.10;99.90
20504;DHT22;10410;51.046;6.980;2022-12-22T00:20:16;9.10;99.90
20504;DHT22;10410;51.046;6.980;2022-12-22T00:27:35;9.10;99.90
20504;DHT22;10410;51.046;6.980;2022-12-22T00:34:53;9.10;99.90
20504;DHT22;10410;51.046;6.980;2022-12-22T00:42:12;9.20;99.90
20504;DHT22;10410;51.046;6.980;2022-12-22T00:49:33;9.10;99.90
20504;DHT22;10410;51.046;6.980;2022-12-22T00:56:52;9.20;99.90
20504;DHT22;10410;51.046;6.980;2022-12-22T01:04:12;9.20;99.90
20504;DHT22;10410;51.046;6.980;2022-12-22T01:11:31;9.20;99.90
20504;DHT22;10410;51.046;6.980;2022-12-22T01:18:51;9.30;99.90
20504;DHT22;10410;51.046;6.980;2022-12-22T01:26:10;9.30;99.90
20504;DHT22;10410;51.046;6.980;2022-12-22T01:33:30;9.30;99.90
20504;DHT22;10410;51.046;6.980;2022-12-22T01:40:49;9.40;99.90
20504;DHT22;10410;51.046;6.980;2022-12-22T01:48:17;9.40;99.90
20504;DHT22;10410;51.046;6.980;2022-12-22T01:55:36;9.40;99.90
20504;DHT22;10410;51.046;6.980;2022-12-22T02:02:55;9.50;99.90
20504;DHT22;10410;51.046;6.980;2022-12-22T02:18:15;9.50;99.90
20504;DHT22;10410;51.046;6.980;2022-12-22T02:25:54;9.40;99.90
20504;DHT22;10410;51.046;6.980;2022-12-22T02:33:15;9.50;99.90
20504;DHT22;10410;51.046;6.980;2022-12-22T02:40:49;9.50;99.90
20504;DHT22;10410;51.046;6.980;2022-12-22T02:48:21;9.50;99.90
20504;DHT22;10410;51.046;6.980;2022-12-22T02:55:41;9.50;99.90
20504;DHT22;10410;51.046;6.980;2022-12-22T03:03:00;9.50;99.90
20504;DHT22;10410;51.046;6.980;2022-12-22T03:10:19;9.50;99.90
20504;DHT22;10410;51.046;6.980;2022-12-22T03:17:38;9.50;99.90
20504;DHT22;10410;51.046;6.980;2022-12-22T03:24:57;9.50;99.90
20504;DHT22;10410;51.046;6.980;2022-12-22T03:32:16;9.60;99.90
20504;DHT22;10410;51.046;6.980;2022-12-22T03:39:16;9.60;99.90
20504;DHT22;10410;51.046;6.980;2022-12-22T03:46:17;9.60;99.90
20504;DHT22;10410;51.046;6.980;2022-12-22T03:53:29;9.60;99.90
20504;DHT22;10410;51.046;6.980;2022-12-22T04:00:30;9.70;99.90
20504;DHT22;10410;51.046;6.980;2022-12-22T04:07:30;9.70;99.90
20504;DHT22;10410;51.046;6.980;2022-12-22T04:14:31;9.70;99.90
20504;DHT22;10410;51.046;6.980;2022-12-22T04:21:34;9.70;99.90
20504;DHT22;10410;51.046;6.980;2022-12-22T04:28:34;9.80;99.90
20504;DHT22;10410;51.046;6.980;2022-12-22T04:35:34;9.80;99.90
20504;DHT22;10410;51.046;6.980;2022-12-22T04:42:35;9.80;99.90
20504;DHT22;10410;51.046;6.980;2022-12-22T04:49:35;9.80;99.90
20504;DHT22;10410;51.046;6.980;2022-12-22T04:56:35;9.80;99.90
20504;DHT22;10410;51.046;6.980;2022-12-22T05:03:36;9.90;99.90
20504;DHT22;10410;51.046;6.980;2022-12-22T05:10:36;9.90;99.90
20504;DHT22;10410;51.046;6.980;2022-12-22T05:17:37;9.90;99.90
20504;DHT22;10410;51.046;6.980;2022-12-22T05:24:37;10.00;99.90
20504;DHT22;10410;51.046;6.980;2022-12-22T05:31:37;10.00;99.90
20504;DHT22;10410;51.046;6.980;2022-12-22T05:38:46;10.00;99.90
20504;DHT22;10410;51.046;6.980;2022-12-22T05:45:46;10.00;99.90
20504;DHT22;10410;51.046;6.980;2022-12-22T05:52:47;10.00;99.90
20504;DHT22;10410;51.046;6.980;2022-12-22T05:59:47;10.00;99.90
20504;DHT22;10410;51.046;6.980;2022-12-22T06:06:48;10.00;99.90
20504;DHT22;10410;51.046;6.980;2022-12-22T06:13:48;10.00;99.90
20504;DHT22;10410;51.046;6.980;2022-12-22T06:20:51;10.00;99.90
20504;DHT22;10410;51.046;6.980;2022-12-22T06:27:52;10.00;99.90
20504;DHT22;10410;51.046;6.980;2022-12-22T06:34:53;10.00;99.90
20504;DHT22;10410;51.046;6.980;2022-12-22T06:41:53;10.00;99.90
20504;DHT22;10410;51.046;6.980;2022-12-22T06:49:12;10.00;99.90
20504;DHT22;10410;51.046;6.980;2022-12-22T06:56:12;10.00;99.90
20504;DHT22;10410;51.046;6.980;2022-12-22T07:03:13;10.10;99.90
20504;DHT22;10410;51.046;6.980;2022-12-22T07:10:13;10.00;99.90
20504;DHT22;10410;51.046;6.980;2022-12-22T07:17:14;10.00;99.90
20504;DHT22;10410;51.046;6.980;2022-12-22T07:24:14;10.00;99.90
20504;DHT22;10410;51.046;6.980;2022-12-22T07:31:22;10.00;99.90
20504;DHT22;10410;51.046;6.980;2022-12-22T07:38:22;10.00;99.90
20504;DHT22;10410;51.046;6.980;2022-12-22T07:45:23;10.00;99.90
20504;DHT22;10410;51.046;6.980;2022-12-22T07:52:24;10.00;99.90
20504;DHT22;10410;51.046;6.980;2022-12-22T07:59:24;9.90;99.90
20504;DHT22;10410;51.046;6.980;2022-12-22T08:06:25;9.90;99.90
20504;DHT22;10410;51.046;6.980;2022-12-22T08:13:25;9.80;99.90
20504;DHT22;10410;51.046;6.980;2022-12-22T08:20:26;9.90;99.90
20504;DHT22;10410;51.046;6.980;2022-12-22T08:27:36;9.80;99.90
20504;DHT22;10410;51.046;6.980;2022-12-22T08:34:39;9.80;99.90
20504;DHT22;10410;51.046;6.980;2022-12-22T08:41:40;9.90;99.90
20504;DHT22;10410;51.046;6.980;2022-12-22T08:48:49;10.00;99.90
20504;DHT22;10410;51.046;6.980;2022-12-22T08:55:51;10.00;99.90
20504;DHT22;10410;51.046;6.980;2022-12-22T09:02:52;9.90;99.90
20504;DHT22;10410;51.046;6.980;2022-12-22T09:09:53;9.90;99.90
20504;DHT22;10410;51.046;6.980;2022-12-22T09:16:53;9.90;99.90
20504;DHT22;10410;51.046;6.980;2022-12-22T09:23:55;9.90;99.90
20504;DHT22;10410;51.046;6.980;2022-12-22T09:30:55;9.80;99.90
20504;DHT22;10410;51.046;6.980;2022-12-22T09:37:56;9.80;99.90
20504;DHT22;10410;51.046;6.980;2022-12-22T09:44:56;9.80;99.90
20504;DHT22;10410;51.046;6.980;2022-12-22T09:52:02;9.80;99.90
20504;DHT22;10410;51.046;6.980;2022-12-22T09:59:11;9.80;99.90
20504;DHT22;10410;51.046;6.980;2022-12-22T10:13:39;9.90;99.90
20504;DHT22;10410;51.046;6.980;2022-12-22T10:20:41;9.90;99.90
20504;DHT22;10410;51.046;6.980;2022-12-22T10:27:47;10.00;99.90
20504;DHT22;10410;51.046;6.980;2022-12-22T10:35:05;10.00;99.90
20504;DHT22;10410;51.046;6.980;2022-12-22T10:42:08;10.00;99.90
20504;DHT22;10410;51.046;6.980;2022-12-22T10:49:21;10.00;99.90
20504;DHT22;10410;51.046;6.980;2022-12-22T10:56:29;10.00;99.90
20504;DHT22;10410;51.046;6.980;2022-12-22T11:03:30;10.00;99.90
20504;DHT22;10410;51.046;6.980;2022-12-22T11:10:54;10.00;99.90
20504;DHT22;10410;51.046;6.980;2022-12-22T11:47:46;10.30;99.90
20504;DHT22;10410;51.046;6.980;2022-12-22T12:02:37;10.30;99.90
20504;DHT22;10410;51.046;6.980;2022-12-22T12:31:25;10.10;99.90
20504;DHT22;10410;51.046;6.980;2022-12-22T12:38:37;10.00;99.90
20504;DHT22;10410;51.046;6.980;2022-12-22T12:46:43;10.10;99.90
20504;DHT22;10410;51.046;6.980;2022-12-22T13:08:30;10.40;99.90
20504;DHT22;10410;51.046;6.980;2022-12-22T13:15:41;10.40;99.90
20504;DHT22;10410;51.046;6.980;2022-12-22T13:22:44;10.50;99.90
20504;DHT22;10410;51.046;6.980;2022-12-22T13:29:46;10.40;99.90
20504;DHT22;10410;51.046;6.980;2022-12-22T13:36:50;10.50;99.90
20504;DHT22;10410;51.046;6.980;2022-12-22T13:43:55;10.50;99.90
20504;DHT22;10410;51.046;6.980;2022-12-22T13:50:59;10.50;99.90
20504;DHT22;10410;51.046;6.980;2022-12-22T13:58:07;10.50;99.90
20504;DHT22;10410;51.046;6.980;2022-12-22T14:05:13;10.50;99.90
20504;DHT22;10410;51.046;6.980;2022-12-22T14:12:18;10.50;99.90
20504;DHT22;10410;51.046;6.980;2022-12-22T14:19:20;10.60;99.90
20504;DHT22;10410;51.046;6.980;2022-12-22T14:26:25;10.60;99.90
20504;DHT22;10410;51.046;6.980;2022-12-22T14:33:30;10.60;99.90
20504;DHT22;10410;51.046;6.980;2022-12-22T14:40:37;10.60;99.90
20504;DHT22;10410;51.046;6.980;2022-12-22T14:47:38;10.60;99.90
20504;DHT22;10410;51.046;6.980;2022-12-22T14:54:39;10.60;99.90
20504;DHT22;10410;51.046;6.980;2022-12-22T15:01:39;10.50;99.90
20504;DHT22;10410;51.046;6.980;2022-12-22T15:16:14;10.40;99.90
20504;DHT22;10410;51.046;6.980;2022-12-22T15:23:14;10.40;99.90
20504;DHT22;10410;51.046;6.980;2022-12-22T15:30:19;10.30;99.90
20504;DHT22;10410;51.046;6.980;2022-12-22T15:37:26;10.40;99.90
20504;DHT22;10410;51.046;6.980;2022-12-22T15:44:26;10.30;99.90
20504;DHT22;10410;51.046;6.980;2022-12-22T15:51:32;10.40;99.90
20504;DHT22;10410;51.046;6.980;2022-12-22T15:58:35;10.30;99.90
20504;DHT22;10410;51.046;6.980;2022-12-22T16:05:36;10.30;99.90
20504;DHT22;10410;51.046;6.980;2022-12-22T16:12:37;10.20;99.90
20504;DHT22;10410;51.046;6.980;2022-12-22T16:19:37;10.10;99.90
20504;DHT22;10410;51.046;6.980;2022-12-22T16:26:45;10.10;99.90
20504;DHT22;10410;51.046;6.980;2022-12-22T16:33:45;10.00;99.90
20504;DHT22;10410;51.046;6.980;2022-12-22T16:40:49;10.00;99.90
20504;DHT22;10410;51.046;6.980;2022-12-22T16:47:51;9.80;99.90
20504;DHT22;10410;51.046;6.980;2022-12-22T16:54:52;9.80;99.90
20504;DHT22;10410;51.046;6.980;2022-12-22T17:01:54;9.70;99.90
20504;DHT22;10410;51.046;6.980;2022-12-22T17:08:55;9.70;99.90
20504;DHT22;10410;51.046;6.980;2022-12-22T17:15:56;9.60;99.90
20504;DHT22;10410;51.046;6.980;2022-12-22T17:22:58;9.60;99.90
20504;DHT22;10410;51.046;6.980;2022-12-22T17:30:01;9.50;99.90
20504;DHT22;10410;51.046;6.980;2022-12-22T17:37:03;9.50;99.90
20504;DHT22;10410;51.046;6.980;2022-12-22T17:44:03;9.50;99.90
20504;DHT22;10410;51.046;6.980;2022-12-22T17:51:04;9.50;99.90
20504;DHT22;10410;51.046;6.980;2022-12-22T17:58:04;9.50;99.90
20504;DHT22;10410;51.046;6.980;2022-12-22T18:05:05;9.50;99.90
20504;DHT22;10410;51.046;6.980;2022-12-22T18:12:13;9.50;99.90
20504;DHT22;10410;51.046;6.980;2022-12-22T18:19:14;9.50;99.90
20504;DHT22;10410;51.046;6.980;2022-12-22T18:26:27;9.50;99.90
20504;DHT22;10410;51.046;6.980;2022-12-22T18:33:27;9.50;99.90
20504;DHT22;10410;51.046;6.980;2022-12-22T18:40:37;9.50;99.90
20504;DHT22;10410;51.046;6.980;2022-12-22T18:47:38;9.50;99.90
20504;DHT22;10410;51.046;6.980;2022-12-22T18:54:38;9.50;99.90
20504;DHT22;10410;51.046;6.980;2022-12-22T19:01:39;9.60;99.90
20504;DHT22;10410;51.046;6.980;2022-12-22T19:08:40;9.70;99.90
20504;DHT22;10410;51.046;6.980;2022-12-22T19:15:45;9.60;99.90
20504;DHT22;10410;51.046;6.980;2022-12-22T19:22:46;9.70;99.90
20504;DHT22;10410;51.046;6.980;2022-12-22T19:29:47;9.80;99.90
20504;DHT22;10410;51.046;6.980;2022-12-22T19:36:47;9.80;99.90
20504;DHT22;10410;51.046;6.980;2022-12-22T19:43:48;9.80;99.90
20504;DHT22;10410;51.046;6.980;2022-12-22T19:50:49;9.90;99.90
20504;DHT22;10410;51.046;6.980;2022-12-22T19:57:50;9.90;99.90
20504;DHT22;10410;51.046;6.980;2022-12-22T20:04:52;9.80;99.90
20504;DHT22;10410;51.046;6.980;2022-12-22T20:11:53;9.80;99.90
20504;DHT22;10410;51.046;6.980;2022-12-22T20:18:53;9.80;99.90
20504;DHT22;10410;51.046;6.980;2022-12-22T20:26:00;9.70;99.90
20504;DHT22;10410;51.046;6.980;2022-12-22T20:33:01;9.80;99.90
20504;DHT22;10410;51.046;6.980;2022-12-22T20:40:02;9.80;99.90
20504;DHT22;10410;51.046;6.980;2022-12-22T20:47:03;9.90;99.90
20504;DHT22;10410;51.046;6.980;2022-12-22T20:54:03;9.90;99.90
20504;DHT22;10410;51.046;6.980;2022-12-22T21:01:03;9.90;99.90
20504;DHT22;10410;51.046;6.980;2022-12-22T21:08:19;10.00;99.90
20504;DHT22;10410;51.046;6.980;2022-12-22T21:15:23;10.10;99.90
20504;DHT22;10410;51.046;6.980;2022-12-22T21:22:23;10.10;99.90
20504;DHT22;10410;51.046;6.980;2022-12-22T21:29:25;10.10;99.90
20504;DHT22;10410;51.046;6.980;2022-12-22T21:36:28;10.10;99.90
20504;DHT22;10410;51.046;6.980;2022-12-22T21:43:29;10.00;99.90
20504;DHT22;10410;51.046;6.980;2022-12-22T21:50:31;10.00;99.90
20504;DHT22;10410;51.046;6.980;2022-12-22T21:57:32;9.80;99.90
20504;DHT22;10410;51.046;6.980;2022-12-22T22:04:32;9.80;99.90
20504;DHT22;10410;51.046;6.980;2022-12-22T22:11:33;9.80;99.90
20504;DHT22;10410;51.046;6.980;2022-12-22T22:18:53;9.70;99.90
20504;DHT22;10410;51.046;6.980;2022-12-22T22:25:57;9.70;99.90
20504;DHT22;10410;51.046;6.980;2022-12-22T22:32:58;9.60;99.90
20504;DHT22;10410;51.046;6.980;2022-12-22T22:39:58;9.60;99.90
20504;DHT22;10410;51.046;6.980;2022-12-22T22:46:59;9.60;99.90
20504;DHT22;10410;51.046;6.980;2022-12-22T22:54:00;9.60;99.90
20504;DHT22;10410;51.046;6.980;2022-12-22T23:01:05;9.60;99.90
20504;DHT22;10410;51.046;6.980;2022-12-22T23:08:06;9.60;99.90
20504;DHT22;10410;51.046;6.980;2022-12-22T23:15:07;9.60;99.90
20504;DHT22;10410;51.046;6.980;2022-12-22T23:22:07;9.60;99.90
20504;DHT22;10410;51.046;6.980;2022-12-22T23:29:08;9.60;99.90
20504;DHT22;10410;51.046;6.980;2022-12-22T23:36:08;9.70;99.90
20504;DHT22;10410;51.046;6.980;2022-12-22T23:43:10;9.60;99.90
20504;DHT22;10410;51.046;6.980;2022-12-22T23:50:11;9.70;99.90
20504;DHT22;10410;51.046;6.980;2022-12-22T23:57:11;9.60;99.90
